Impacts METAR Board
IDs:

KPHL - Philadelphia Intl, PA, US

Updated at: 0100 UTC 28 May 2018
Potential Impact None Slight Moderate High
Time 27/13Z 27/14Z 27/15Z 27/16Z 27/17Z 27/18Z 27/19Z 27/20Z 27/21Z 27/22Z 27/23Z 28/00Z 28/01Z
Temp68 66 69 69 68 69 67 64 62 62 62 60 60
Dewpt65 65 66 65 64 64 63 61 59 60 59 58 57
Altim29.93 29.96 29.96 29.97 29.98 29.98 29.98 29.99 30.01 29.99 30.03 30.04 30.05
VIS10 10 10 10 10 10 10 10 10 10 10 10 10
CIG12 7 8 9 10 11 10 9 8 8 8 10 11
CoverOVCOVCBKNOVCOVCOVCOVCOVCOVCOVCOVCOVCOVC
FltCatMVFRIFRIFRIFRMVFRMVFRMVFRIFRIFRIFRIFRMVFRMVFR
WX---RA---------------RA-RA-RA-RA
WDir50507060405060609080807080
WSpd10 8 13 8 11 11 11 10 10 12 11 11 10
WGst-- -- 17 19 -- -- -- -- -- -- -- -- --
Raw hourly METARs
KPHL 271254Z 05010KT 10SM BKN012 BKN019 OVC038 20/18 A2993 RMK AO2 SLP136 VCSH N-NE T02000183 $
KPHL 271354Z 05008KT 10SM -RA BKN007 BKN019 OVC040 19/18 A2996 RMK AO2 RAB20 SLP143 BKN007 V SCT P0007 T01890183 $
KPHL 271454Z 07013G17KT 10SM BKN008 BKN012 BKN040 21/19 A2996 RMK AO2 RAE09 SLP145 P0000 60007 T02060189 51018 $
KPHL 271554Z 06008G19KT 10SM BKN009 OVC040 21/18 A2997 RMK AO2 SLP148 T02060183 $
KPHL 271654Z 04011KT 10SM OVC010 20/18 A2998 RMK AO2 SLP153 T02000178 $
KPHL 271754Z 05011KT 10SM OVC011 21/18 A2998 RMK AO2 SLP151 60007 T02060178 10244 20189 50006 $
KPHL 271854Z 06011KT 10SM OVC010 19/17 A2998 RMK AO2 SLP152 T01940172 $
KPHL 271954Z 06010KT 10SM OVC009 18/16 A2999 RMK AO2 SLP154 T01780161 $
KPHL 272054Z 09010KT 10SM OVC008 17/15 A3001 RMK AO2 SLP161 OCNL LTGCG DSNT SW CB DSNT SW MOV E T01670150 53010 $
KPHL 272154Z 08012KT 10SM -RA OVC008 17/16 A2999 RMK AO2 RAB50 SLP156 P0000 T01670156 $
KPHL 272254Z 08011KT 10SM -RA BKN008 OVC012 17/15 A3003 RMK AO2 SLP167 P0001 T01670150 $
KPHL 272354Z 07011KT 10SM -RA OVC010 16/14 A3004 RMK AO2 SLP172 P0000 60001 T01560144 10206 20156 53011 $
KPHL 280054Z 08010KT 10SM -RA OVC011 16/14 A3005 RMK AO2 SLP173 P0000 T01560139 $



Page loaded:  01:30 UTC  |   06:30 PM Pacific  |   07:30 PM Mountain  |   08:30 PM Central  |   09:30 PM Eastern

 

ADVISORIES

FORECASTS

FORECASTS

OBSERVATIONS

USER TOOLS

ABOUT US